createdAt,value
2022-12-16T05:30:38.076Z,0.00
2022-12-16T05:31:38.125Z,0.00
2022-12-16T05:32:38.058Z,0.00
2022-12-16T05:33:38.024Z,0.00
2022-12-16T05:34:38.024Z,0.00
2022-12-16T05:35:38.037Z,0.00
2022-12-16T05:36:37.985Z,0.00
2022-12-16T05:37:37.972Z,0.00
2022-12-16T05:38:37.979Z,0.00
2022-12-16T05:39:37.963Z,0.00
2022-12-16T05:40:37.946Z,0.00
2022-12-16T05:41:37.953Z,0.00
2022-12-16T05:42:37.925Z,0.00
2022-12-16T05:43:37.916Z,0.00
2022-12-16T05:44:37.923Z,0.00
2022-12-16T05:45:37.982Z,0.00
2022-12-16T05:46:38.093Z,0.00
2022-12-16T05:47:37.880Z,0.00
2022-12-16T05:48:39.300Z,0.00
2022-12-16T05:49:37.850Z,0.00
2022-12-16T05:50:37.866Z,0.00
2022-12-16T05:51:37.861Z,0.00
2022-12-16T05:52:37.822Z,0.00
2022-12-16T05:53:37.813Z,0.00
2022-12-16T05:54:37.826Z,0.00
2022-12-16T05:55:37.786Z,0.00
2022-12-16T05:56:37.793Z,0.00
2022-12-16T05:57:37.772Z,0.00
2022-12-16T05:58:37.755Z,0.00
2022-12-16T05:59:37.753Z,0.00
2022-12-16T06:00:37.788Z,0.00
2022-12-16T06:01:37.835Z,0.00
2022-12-16T06:02:37.857Z,0.00
2022-12-16T06:03:38.388Z,0.00
2022-12-16T06:04:37.699Z,0.00
2022-12-16T06:05:37.712Z,0.00
2022-12-16T06:06:37.730Z,0.00
2022-12-16T06:07:37.676Z,0.00
2022-12-16T06:08:37.668Z,0.00
2022-12-16T06:09:37.650Z,0.00
2022-12-16T06:10:37.636Z,0.00
2022-12-16T06:11:37.694Z,0.00
2022-12-16T06:12:37.688Z,0.00
2022-12-16T06:13:37.615Z,0.00
2022-12-16T06:14:37.626Z,0.00
2022-12-16T06:15:37.587Z,0.00
2022-12-16T06:16:37.625Z,0.00
2022-12-16T06:17:37.587Z,0.00
2022-12-16T06:18:37.569Z,0.00
2022-12-16T06:19:37.544Z,0.00
2022-12-16T06:20:37.537Z,0.00
2022-12-16T06:21:37.529Z,0.00
2022-12-16T06:22:37.530Z,0.00
2022-12-16T06:23:37.826Z,0.00
2022-12-16T06:24:37.530Z,0.00
2022-12-16T06:25:37.489Z,0.00
2022-12-16T06:26:37.482Z,0.00
2022-12-16T06:27:37.469Z,0.00
2022-12-16T06:28:38.637Z,0.00
2022-12-16T06:29:37.470Z,0.00
2022-12-16T06:30:37.427Z,0.00
2022-12-16T06:31:37.487Z,0.00
2022-12-16T06:32:37.423Z,0.00
2022-12-16T06:33:37.419Z,0.00
2022-12-16T06:34:37.434Z,0.00
2022-12-16T06:35:37.384Z,0.00
2022-12-16T06:36:37.366Z,0.00
2022-12-16T06:37:37.369Z,0.00
2022-12-16T06:38:37.390Z,0.00
2022-12-16T06:39:37.344Z,0.00
2022-12-16T06:40:37.347Z,0.00
2022-12-16T06:41:37.316Z,0.00
2022-12-16T06:42:37.326Z,0.00
2022-12-16T06:43:37.306Z,0.00
2022-12-16T06:44:37.301Z,0.00
2022-12-16T06:45:37.340Z,0.00
2022-12-16T06:46:37.265Z,0.00
2022-12-16T06:47:37.260Z,0.00
2022-12-16T06:48:37.253Z,0.00
2022-12-16T06:49:37.239Z,0.00
2022-12-16T06:50:40.479Z,0.00
2022-12-16T06:51:38.245Z,0.00
2022-12-16T06:52:37.203Z,0.00
2022-12-16T06:53:37.197Z,0.00
2022-12-16T06:54:37.187Z,0.00
2022-12-16T06:55:37.173Z,4.00
2022-12-16T06:56:37.177Z,4.00
2022-12-16T06:57:37.180Z,0.00
2022-12-16T06:58:37.138Z,0.00
2022-12-16T06:59:37.133Z,4.00
2022-12-16T07:00:37.175Z,0.00
2022-12-16T07:01:37.234Z,4.00
2022-12-16T07:02:37.255Z,4.00
2022-12-16T07:03:37.649Z,8.00
2022-12-16T07:04:37.079Z,4.00
2022-12-16T07:05:37.094Z,4.00
2022-12-16T07:06:37.091Z,4.00
2022-12-16T07:07:37.055Z,8.00
2022-12-16T07:08:37.063Z,12.00
2022-12-16T07:09:37.047Z,12.00
2022-12-16T07:10:37.015Z,12.00
2022-12-16T07:11:37.016Z,12.00
2022-12-16T07:12:36.999Z,16.00
2022-12-16T07:13:37.013Z,16.00
2022-12-16T07:14:37.002Z,20.00
2022-12-16T07:15:36.984Z,24.00
2022-12-16T07:16:37.021Z,24.00
2022-12-16T07:17:36.955Z,24.00
2022-12-16T07:18:36.952Z,28.00
2022-12-16T07:19:36.948Z,36.00
2022-12-16T07:20:36.942Z,36.00
2022-12-16T07:21:36.912Z,36.00
2022-12-16T07:22:37.045Z,44.00
2022-12-16T07:23:36.891Z,44.00
2022-12-16T07:24:36.886Z,48.00
2022-12-16T07:25:36.869Z,52.00
2022-12-16T07:26:36.863Z,56.00
2022-12-16T07:27:36.845Z,64.00
2022-12-16T07:28:36.853Z,68.00
2022-12-16T07:29:36.828Z,76.00
2022-12-16T07:30:36.835Z,80.00
2022-12-16T07:31:36.890Z,88.00
2022-12-16T07:32:36.795Z,92.00
2022-12-16T07:33:36.966Z,100.00
2022-12-16T07:34:41.308Z,108.00
2022-12-16T07:35:37.763Z,112.00
2022-12-16T07:36:36.758Z,120.00
2022-12-16T07:37:36.744Z,128.00
2022-12-16T07:38:36.767Z,132.00
2022-12-16T07:39:36.750Z,140.00
2022-12-16T07:40:36.726Z,148.00
2022-12-16T07:41:36.695Z,156.00
2022-12-16T07:42:36.687Z,164.00
2022-12-16T07:43:36.845Z,176.00
2022-12-16T07:44:36.678Z,184.00
2022-12-16T07:45:41.674Z,192.00
2022-12-16T07:46:37.690Z,200.00
2022-12-16T07:47:36.656Z,208.00
2022-12-16T07:48:36.651Z,220.00
2022-12-16T07:49:36.629Z,228.00
2022-12-16T07:50:36.648Z,236.00
2022-12-16T07:51:36.605Z,240.00
2022-12-16T07:52:36.600Z,256.00
2022-12-16T07:53:36.916Z,260.00
2022-12-16T07:54:36.597Z,272.00
2022-12-16T07:55:36.611Z,280.00
2022-12-16T07:56:36.566Z,288.00
2022-12-16T07:57:36.541Z,296.00
2022-12-16T07:58:36.527Z,304.00
2022-12-16T07:59:36.521Z,312.00
2022-12-16T08:00:36.537Z,320.00
2022-12-16T08:01:36.592Z,328.00
2022-12-16T08:02:36.644Z,336.00
2022-12-16T08:03:37.311Z,344.00
2022-12-16T08:04:36.467Z,352.00
2022-12-16T08:05:36.456Z,400.00
2022-12-16T08:06:40.294Z,412.00
2022-12-16T08:07:36.452Z,416.00
2022-12-16T08:08:36.427Z,428.00
2022-12-16T08:09:36.436Z,440.00
2022-12-16T08:10:36.434Z,448.00
2022-12-16T08:11:36.397Z,460.00
2022-12-16T08:12:36.380Z,472.00
2022-12-16T08:13:36.810Z,484.00
2022-12-16T08:14:36.372Z,500.00
2022-12-16T08:15:36.356Z,508.00
2022-12-16T08:16:36.403Z,520.00
2022-12-16T08:17:36.332Z,532.00
2022-12-16T08:18:36.321Z,544.00
2022-12-16T08:19:36.321Z,548.00
2022-12-16T08:20:36.317Z,564.00
2022-12-16T08:21:36.295Z,580.00
2022-12-16T08:22:36.280Z,564.00
2022-12-16T08:23:36.600Z,580.00
2022-12-16T08:24:36.258Z,604.00
2022-12-16T08:25:36.253Z,628.00
2022-12-16T08:26:36.285Z,644.00
2022-12-16T08:27:36.236Z,644.00
2022-12-16T08:28:36.214Z,640.00
2022-12-16T08:29:45.052Z,640.00
2022-12-16T08:30:37.214Z,644.00
2022-12-16T08:31:36.188Z,640.00
2022-12-16T08:32:36.198Z,648.00
2022-12-16T08:33:36.654Z,660.00
2022-12-16T08:34:36.156Z,660.00
2022-12-16T08:35:36.145Z,668.00
2022-12-16T08:36:36.150Z,680.00
2022-12-16T08:37:36.128Z,700.00
2022-12-16T08:38:36.119Z,724.00
2022-12-16T08:39:36.107Z,740.00
2022-12-16T08:40:36.923Z,748.00
2022-12-16T08:41:36.088Z,760.00
2022-12-16T08:42:36.111Z,764.00
2022-12-16T08:43:36.557Z,772.00
2022-12-16T08:44:36.067Z,780.00
2022-12-16T08:45:36.040Z,800.00
2022-12-16T08:46:36.161Z,840.00
2022-12-16T08:47:36.045Z,896.00
2022-12-16T08:48:36.011Z,1064.00
2022-12-16T08:49:36.000Z,1368.00
2022-12-16T08:50:36.010Z,1608.00
2022-12-16T08:51:35.983Z,1760.00
2022-12-16T08:52:35.976Z,2072.00
2022-12-16T08:53:36.391Z,2136.00
2022-12-16T08:54:35.951Z,2112.00
2022-12-16T08:55:35.933Z,2100.00
2022-12-16T08:56:35.986Z,2288.00
2022-12-16T08:57:35.916Z,2416.00
2022-12-16T08:58:35.953Z,2424.00
2022-12-16T08:59:35.894Z,2472.00
2022-12-16T09:00:35.889Z,2652.00
2022-12-16T09:01:35.981Z,2696.00
2022-12-16T09:02:36.067Z,2732.00
2022-12-16T09:03:36.392Z,2760.00
2022-12-16T09:04:35.846Z,2784.00
2022-12-16T09:05:35.854Z,2772.00
2022-12-16T09:06:40.363Z,2808.00
2022-12-16T09:07:36.809Z,2652.00
2022-12-16T09:08:35.804Z,2792.00
2022-12-16T09:09:35.790Z,2768.00
2022-12-16T09:10:40.252Z,2708.00
2022-12-16T09:11:35.766Z,2824.00
2022-12-16T09:12:35.788Z,2888.00
2022-12-16T09:13:36.254Z,2856.00
2022-12-16T09:14:35.763Z,2848.00
2022-12-16T09:15:35.780Z,2648.00
2022-12-16T09:16:35.819Z,2480.00
2022-12-16T09:17:35.714Z,2780.00
2022-12-16T09:18:35.699Z,2928.00
2022-12-16T09:19:35.686Z,2884.00
2022-12-16T09:20:35.702Z,2884.00
2022-12-16T09:21:35.665Z,2476.00
2022-12-16T09:22:35.675Z,2592.00
2022-12-16T09:23:35.929Z,2464.00
2022-12-16T09:24:35.637Z,2352.00
2022-12-16T09:25:35.640Z,2444.00
2022-12-16T09:26:35.739Z,3052.00
2022-12-16T09:27:35.604Z,2920.00
2022-12-16T09:28:35.615Z,2568.00
2022-12-16T09:29:37.386Z,2976.00
2022-12-16T09:30:36.702Z,2968.00
2022-12-16T09:31:35.674Z,3036.00
2022-12-16T09:32:35.566Z,3024.00
2022-12-16T09:33:36.292Z,3276.00
2022-12-16T09:34:35.587Z,3308.00
2022-12-16T09:35:35.532Z,3372.00
2022-12-16T09:36:35.505Z,3024.00
2022-12-16T09:37:35.510Z,2528.00
2022-12-16T09:38:35.531Z,2452.00
2022-12-16T09:39:35.495Z,2856.00
2022-12-16T09:40:35.480Z,2936.00
2022-12-16T09:41:39.651Z,2884.00
2022-12-16T09:42:36.475Z,3188.00
2022-12-16T09:43:35.923Z,3368.00
2022-12-16T09:44:35.439Z,3348.00
2022-12-16T09:45:35.418Z,3412.00
2022-12-16T09:46:35.617Z,3364.00
2022-12-16T09:47:35.445Z,3488.00
2022-12-16T09:48:35.385Z,3372.00
2022-12-16T09:49:35.393Z,3392.00
2022-12-16T09:50:35.398Z,3484.00
2022-12-16T09:51:35.349Z,3468.00
2022-12-16T09:52:35.366Z,3484.00
2022-12-16T09:53:35.811Z,3420.00
2022-12-16T09:54:35.327Z,3428.00
2022-12-16T09:55:35.311Z,3468.00
2022-12-16T09:56:35.328Z,3580.00
2022-12-16T09:57:35.305Z,3660.00
2022-12-16T09:58:35.278Z,3636.00
2022-12-16T09:59:35.272Z,3636.00
2022-12-16T10:00:35.260Z,3704.00
2022-12-16T10:01:35.475Z,3688.00
2022-12-16T10:02:35.457Z,3668.00
2022-12-16T10:03:35.659Z,3624.00
2022-12-16T10:04:35.222Z,3680.00
2022-12-16T10:05:35.210Z,3736.00
2022-12-16T10:06:35.213Z,3768.00
2022-12-16T10:07:35.190Z,3732.00
2022-12-16T10:08:35.193Z,3720.00
2022-12-16T10:09:35.184Z,3672.00
2022-12-16T10:10:35.149Z,3624.00
2022-12-16T10:11:35.145Z,3768.00
2022-12-16T10:12:35.132Z,3804.00
2022-12-16T10:13:35.440Z,3788.00
2022-12-16T10:14:35.145Z,3852.00
2022-12-16T10:15:35.152Z,3856.00
2022-12-16T10:16:35.208Z,3952.00
2022-12-16T10:17:35.099Z,3824.00
2022-12-16T10:18:35.163Z,3804.00
2022-12-16T10:19:35.056Z,3676.00
2022-12-16T10:20:35.072Z,3792.00
2022-12-16T10:21:35.036Z,3824.00
2022-12-16T10:22:35.046Z,3860.00
2022-12-16T10:23:35.414Z,3912.00
2022-12-16T10:24:35.030Z,3928.00
2022-12-16T10:25:34.996Z,4012.00
2022-12-16T10:26:35.014Z,3856.00
2022-12-16T10:27:34.975Z,3944.00
2022-12-16T10:28:34.965Z,3948.00
2022-12-16T10:29:34.949Z,3976.00
2022-12-16T10:30:34.957Z,3984.00
2022-12-16T10:31:35.018Z,3768.00
2022-12-16T10:32:34.937Z,3928.00
2022-12-16T10:33:35.554Z,3872.00
2022-12-16T10:34:34.996Z,3772.00
2022-12-16T10:35:34.908Z,3668.00
2022-12-16T10:36:34.880Z,3732.00
2022-12-16T10:37:34.869Z,3848.00
2022-12-16T10:38:34.874Z,3592.00
2022-12-16T10:39:34.869Z,3676.00
2022-12-16T10:40:34.858Z,3904.00
2022-12-16T10:41:34.883Z,3868.00
2022-12-16T10:42:34.820Z,3780.00
2022-12-16T10:43:35.142Z,3772.00
2022-12-16T10:44:34.797Z,3840.00
2022-12-16T10:45:34.795Z,3776.00
2022-12-16T10:46:34.852Z,3744.00
2022-12-16T10:47:34.787Z,3844.00
2022-12-16T10:48:35.259Z,3628.00
2022-12-16T10:49:34.966Z,3648.00
2022-12-16T10:50:34.756Z,3788.00
2022-12-16T10:51:34.740Z,3888.00
2022-12-16T10:52:34.716Z,3884.00
2022-12-16T10:53:35.333Z,3864.00
2022-12-16T10:54:34.698Z,3912.00
2022-12-16T10:55:34.692Z,3936.00
2022-12-16T10:56:34.669Z,3912.00
2022-12-16T10:57:34.682Z,3980.00
2022-12-16T10:58:35.855Z,4020.00
2022-12-16T10:59:34.637Z,4032.00
2022-12-16T11:00:34.653Z,3988.00
2022-12-16T11:01:34.769Z,3976.00
2022-12-16T11:02:34.818Z,4004.00
2022-12-16T11:03:35.155Z,3972.00
2022-12-16T11:04:34.607Z,3904.00
2022-12-16T11:05:34.591Z,3852.00
2022-12-16T11:06:34.588Z,3804.00
2022-12-16T11:07:34.559Z,3772.00
2022-12-16T11:08:34.541Z,3776.00
2022-12-16T11:09:34.547Z,3748.00
2022-12-16T11:10:34.533Z,3664.00
2022-12-16T11:11:34.536Z,3624.00
2022-12-16T11:12:34.498Z,3608.00
2022-12-16T11:13:34.777Z,3560.00
2022-12-16T11:14:34.492Z,3480.00
2022-12-16T11:15:38.403Z,3396.00
2022-12-16T11:16:35.542Z,3296.00
2022-12-16T11:17:34.448Z,3192.00
2022-12-16T11:18:34.441Z,3124.00
2022-12-16T11:19:34.452Z,3064.00
2022-12-16T11:20:34.420Z,2972.00
2022-12-16T11:21:34.401Z,2904.00
2022-12-16T11:22:34.484Z,2832.00
2022-12-16T11:23:35.044Z,2764.00
2022-12-16T11:24:34.384Z,2672.00
2022-12-16T11:25:34.360Z,2616.00
2022-12-16T11:26:37.175Z,2508.00
2022-12-16T11:27:34.336Z,2444.00
2022-12-16T11:28:34.363Z,2380.00
2022-12-16T11:29:34.324Z,2268.00
2022-12-16T11:30:34.322Z,2192.00
2022-12-16T11:31:34.377Z,2120.00
2022-12-16T11:32:34.285Z,2040.00
2022-12-16T11:33:34.710Z,1992.00
2022-12-16T11:34:34.299Z,1940.00
2022-12-16T11:35:34.261Z,1884.00
2022-12-16T11:36:34.251Z,1820.00
2022-12-16T11:37:34.236Z,1760.00
2022-12-16T11:38:34.267Z,1728.00
2022-12-16T11:39:34.216Z,1680.00
2022-12-16T11:40:34.215Z,1624.00
2022-12-16T11:41:34.209Z,1592.00
2022-12-16T11:42:34.198Z,1544.00
2022-12-16T11:43:34.672Z,1508.00
2022-12-16T11:44:34.190Z,1476.00
2022-12-16T11:45:34.149Z,1448.00
2022-12-16T11:46:34.174Z,1420.00
2022-12-16T11:47:34.125Z,1392.00
2022-12-16T11:48:34.127Z,1360.00
2022-12-16T11:49:34.127Z,1336.00
2022-12-16T11:50:34.101Z,1312.00
2022-12-16T11:51:34.091Z,1296.00
2022-12-16T11:52:37.770Z,1284.00
2022-12-16T11:53:34.443Z,1264.00
2022-12-16T11:54:34.076Z,1252.00
2022-12-16T11:56:03.408Z,1244.00
2022-12-16T11:56:35.103Z,1232.00
2022-12-16T11:57:34.038Z,1216.00
2022-12-16T11:58:34.027Z,1204.00
2022-12-16T11:59:34.016Z,1188.00
2022-12-16T12:00:34.003Z,1176.00
2022-12-16T12:01:34.033Z,1164.00
2022-12-16T12:02:34.017Z,1152.00
2022-12-16T12:03:34.393Z,1140.00
2022-12-16T12:04:33.990Z,1124.00
2022-12-16T12:05:33.954Z,1108.00
2022-12-16T12:06:33.926Z,1104.00
2022-12-16T12:07:33.918Z,1164.00
2022-12-16T12:08:33.908Z,1124.00
2022-12-16T12:09:33.894Z,1060.00
2022-12-16T12:10:33.927Z,1052.00
2022-12-16T12:11:33.885Z,1044.00
2022-12-16T12:12:33.861Z,1032.00
2022-12-16T12:13:34.227Z,1024.00
2022-12-16T12:14:33.844Z,1016.00
2022-12-16T12:15:33.847Z,1004.00
2022-12-16T12:16:33.897Z,872.00
2022-12-16T12:17:33.825Z,880.00
2022-12-16T12:18:34.327Z,868.00
2022-12-16T12:19:33.781Z,864.00
2022-12-16T12:20:33.781Z,860.00
2022-12-16T12:21:33.787Z,852.00
2022-12-16T12:22:33.800Z,848.00
2022-12-16T12:23:34.120Z,844.00
2022-12-16T12:24:33.740Z,836.00
2022-12-16T12:25:33.723Z,828.00
2022-12-16T12:26:33.814Z,824.00
2022-12-16T12:27:33.706Z,820.00
2022-12-16T12:28:33.735Z,816.00
2022-12-16T12:29:33.678Z,812.00
2022-12-16T12:30:33.678Z,812.00
2022-12-16T12:31:33.728Z,808.00
2022-12-16T12:32:33.656Z,800.00
2022-12-16T12:33:33.996Z,800.00
2022-12-16T12:34:33.660Z,796.00
2022-12-16T12:35:33.620Z,796.00
2022-12-16T12:36:37.875Z,792.00
2022-12-16T12:37:33.594Z,792.00
2022-12-16T12:38:33.604Z,788.00
2022-12-16T12:39:33.580Z,788.00
2022-12-16T12:40:33.565Z,788.00
2022-12-16T12:41:33.562Z,788.00
2022-12-16T12:42:33.562Z,784.00
2022-12-16T12:43:35.672Z,776.00
2022-12-16T12:44:42.421Z,772.00
2022-12-16T12:45:34.523Z,768.00
2022-12-16T12:46:33.590Z,764.00
2022-12-16T12:47:33.486Z,760.00
2022-12-16T12:48:33.480Z,752.00
2022-12-16T12:49:33.486Z,748.00
2022-12-16T12:50:33.466Z,740.00
2022-12-16T12:51:33.463Z,728.00
2022-12-16T12:52:33.443Z,724.00
2022-12-16T12:53:33.745Z,712.00
2022-12-16T12:54:33.718Z,708.00
2022-12-16T12:55:33.400Z,700.00
2022-12-16T12:56:33.395Z,696.00
2022-12-16T12:57:33.399Z,692.00
2022-12-16T12:58:33.407Z,684.00
2022-12-16T12:59:33.374Z,684.00
2022-12-16T13:00:33.440Z,680.00
2022-12-16T13:01:33.542Z,676.00
2022-12-16T13:02:33.533Z,668.00
2022-12-16T13:03:33.926Z,668.00
2022-12-16T13:04:33.307Z,664.00
2022-12-16T13:05:33.308Z,660.00
2022-12-16T13:06:33.285Z,656.00
2022-12-16T13:07:33.308Z,652.00
2022-12-16T13:08:33.262Z,640.00
2022-12-16T13:09:33.280Z,636.00
2022-12-16T13:10:33.285Z,636.00
2022-12-16T13:11:35.443Z,632.00
2022-12-16T13:12:33.227Z,624.00
2022-12-16T13:13:33.672Z,616.00
2022-12-16T13:14:33.231Z,612.00
2022-12-16T13:15:33.236Z,612.00
2022-12-16T13:16:33.226Z,608.00
2022-12-16T13:17:33.175Z,600.00
2022-12-16T13:18:33.189Z,596.00
2022-12-16T13:19:33.149Z,592.00
2022-12-16T13:20:33.136Z,584.00
2022-12-16T13:21:33.139Z,580.00
2022-12-16T13:22:33.126Z,576.00
2022-12-16T13:23:33.429Z,572.00
2022-12-16T13:24:33.112Z,576.00
2022-12-16T13:25:33.084Z,572.00
2022-12-16T13:26:33.098Z,564.00
2022-12-16T13:27:33.074Z,556.00
2022-12-16T13:28:33.074Z,548.00
2022-12-16T13:29:33.044Z,544.00
2022-12-16T13:30:33.050Z,540.00
2022-12-16T13:31:33.087Z,536.00
2022-12-16T13:32:33.005Z,532.00
2022-12-16T13:33:33.341Z,532.00
2022-12-16T13:34:32.991Z,528.00
2022-12-16T13:35:33.014Z,528.00
2022-12-16T13:36:32.961Z,520.00
2022-12-16T13:37:34.051Z,516.00
2022-12-16T13:38:32.944Z,512.00
2022-12-16T13:39:32.937Z,512.00
2022-12-16T13:40:32.966Z,508.00
2022-12-16T13:41:32.919Z,504.00
2022-12-16T13:42:32.905Z,500.00
2022-12-16T13:43:33.022Z,492.00
2022-12-16T13:44:32.881Z,492.00
2022-12-16T13:45:32.949Z,488.00
2022-12-16T13:46:32.874Z,480.00
2022-12-16T13:47:32.848Z,476.00
2022-12-16T13:48:32.855Z,472.00
2022-12-16T13:49:32.829Z,472.00
2022-12-16T13:50:32.815Z,464.00
2022-12-16T13:51:32.826Z,464.00
2022-12-16T13:52:32.804Z,456.00
2022-12-16T13:53:33.168Z,452.00
2022-12-16T13:54:32.789Z,452.00
2022-12-16T13:55:32.794Z,448.00
2022-12-16T13:56:32.756Z,444.00
2022-12-16T13:57:32.767Z,444.00
2022-12-16T13:58:32.732Z,440.00
2022-12-16T13:59:32.788Z,436.00
2022-12-16T14:00:36.385Z,432.00
2022-12-16T14:01:32.855Z,428.00
2022-12-16T14:02:32.931Z,408.00
2022-12-16T14:03:33.122Z,404.00
2022-12-16T14:04:32.682Z,400.00
2022-12-16T14:05:32.664Z,396.00
2022-12-16T14:06:32.637Z,412.00
2022-12-16T14:07:32.664Z,404.00
2022-12-16T14:08:32.642Z,404.00
2022-12-16T14:09:32.614Z,400.00
2022-12-16T14:10:32.603Z,396.00
2022-12-16T14:11:32.658Z,396.00
2022-12-16T14:12:32.582Z,388.00
2022-12-16T14:13:32.967Z,384.00
2022-12-16T14:14:32.559Z,380.00
2022-12-16T14:15:32.547Z,376.00
2022-12-16T14:16:32.566Z,372.00
2022-12-16T14:17:32.543Z,372.00
2022-12-16T14:18:32.536Z,364.00
2022-12-16T14:19:32.532Z,360.00
2022-12-16T14:20:32.497Z,360.00
2022-12-16T14:21:32.488Z,352.00
2022-12-16T14:22:32.495Z,352.00
2022-12-16T14:23:55.938Z,348.00
2022-12-16T14:24:33.468Z,344.00
2022-12-16T14:25:32.453Z,340.00
2022-12-16T14:26:32.441Z,340.00
2022-12-16T14:27:32.426Z,336.00
2022-12-16T14:28:32.422Z,328.00
2022-12-16T14:29:32.414Z,324.00
2022-12-16T14:30:32.396Z,320.00
2022-12-16T14:31:32.441Z,312.00
2022-12-16T14:32:32.392Z,308.00
2022-12-16T14:33:32.926Z,304.00
2022-12-16T14:34:32.366Z,300.00
2022-12-16T14:35:32.346Z,300.00
2022-12-16T14:36:32.364Z,292.00
2022-12-16T14:37:32.328Z,284.00
2022-12-16T14:38:32.318Z,280.00
2022-12-16T14:39:32.314Z,276.00
2022-12-16T14:40:32.287Z,272.00
2022-12-16T14:41:32.273Z,268.00
2022-12-16T14:42:32.266Z,260.00
2022-12-16T14:43:32.633Z,252.00
2022-12-16T14:44:32.264Z,248.00
2022-12-16T14:45:32.270Z,244.00
2022-12-16T14:46:32.329Z,240.00
2022-12-16T14:47:32.254Z,236.00
2022-12-16T14:48:32.228Z,228.00
2022-12-16T14:49:32.196Z,224.00
2022-12-16T14:50:32.202Z,216.00
2022-12-16T14:51:32.177Z,216.00
2022-12-16T14:52:32.211Z,208.00
2022-12-16T14:53:32.580Z,204.00
2022-12-16T14:54:32.146Z,200.00
2022-12-16T14:55:32.142Z,192.00
2022-12-16T14:56:32.123Z,184.00
2022-12-16T14:57:32.102Z,184.00
2022-12-16T14:58:32.137Z,176.00
2022-12-16T14:59:32.109Z,168.00
2022-12-16T15:00:32.102Z,164.00
2022-12-16T15:01:32.372Z,156.00
2022-12-16T15:02:32.330Z,152.00
2022-12-16T15:03:32.579Z,148.00
2022-12-16T15:04:32.233Z,144.00
2022-12-16T15:05:32.054Z,136.00
2022-12-16T15:06:32.025Z,132.00
2022-12-16T15:07:32.012Z,124.00
2022-12-16T15:08:32.353Z,120.00
2022-12-16T15:09:31.976Z,120.00
2022-12-16T15:10:31.965Z,112.00
2022-12-16T15:11:31.989Z,108.00
2022-12-16T15:12:31.948Z,104.00
2022-12-16T15:13:32.433Z,100.00
2022-12-16T15:14:31.923Z,92.00
2022-12-16T15:15:31.948Z,88.00
2022-12-16T15:16:31.938Z,84.00
2022-12-16T15:17:31.906Z,80.00
2022-12-16T15:18:31.919Z,76.00
2022-12-16T15:19:31.880Z,68.00
2022-12-16T15:20:31.875Z,68.00
2022-12-16T15:21:31.876Z,64.00
2022-12-16T15:22:31.853Z,56.00
2022-12-16T15:23:32.225Z,52.00
2022-12-16T15:24:31.818Z,52.00
2022-12-16T15:25:31.839Z,44.00
2022-12-16T15:26:31.814Z,44.00
2022-12-16T15:27:31.821Z,32.00
2022-12-16T15:28:31.792Z,32.00
2022-12-16T15:29:31.775Z,28.00
2022-12-16T15:30:31.790Z,24.00
2022-12-16T15:31:31.846Z,24.00
2022-12-16T15:32:31.733Z,20.00
2022-12-16T15:33:32.244Z,16.00
2022-12-16T15:34:31.718Z,16.00
2022-12-16T15:35:31.719Z,12.00
2022-12-16T15:36:31.700Z,12.00
2022-12-16T15:37:31.719Z,12.00
2022-12-16T15:38:31.688Z,12.00
2022-12-16T15:39:31.702Z,8.00
2022-12-16T15:40:31.656Z,8.00
2022-12-16T15:41:31.646Z,8.00
2022-12-16T15:42:31.673Z,4.00
2022-12-16T15:43:32.003Z,8.00
2022-12-16T15:44:31.617Z,4.00
2022-12-16T15:45:31.614Z,4.00
2022-12-16T15:46:31.661Z,4.00
2022-12-16T15:47:31.589Z,4.00
2022-12-16T15:48:31.614Z,0.00
2022-12-16T15:49:31.588Z,4.00
2022-12-16T15:50:31.547Z,0.00
2022-12-16T15:51:31.542Z,4.00
2022-12-16T15:52:31.544Z,4.00
2022-12-16T15:53:32.010Z,0.00
2022-12-16T15:54:31.616Z,0.00
2022-12-16T15:55:31.514Z,4.00
2022-12-16T15:56:31.483Z,0.00
2022-12-16T15:57:31.474Z,0.00
2022-12-16T15:58:31.476Z,0.00
2022-12-16T15:59:31.465Z,0.00
2022-12-16T16:00:31.459Z,0.00
2022-12-16T16:01:31.520Z,0.00
2022-12-16T16:02:31.561Z,0.00
2022-12-16T16:03:31.844Z,0.00
2022-12-16T16:04:31.396Z,0.00
2022-12-16T16:05:31.401Z,0.00
2022-12-16T16:06:31.396Z,0.00
2022-12-16T16:07:31.382Z,0.00
2022-12-16T16:08:31.359Z,0.00
2022-12-16T16:09:31.352Z,0.00
2022-12-16T16:10:31.353Z,0.00
2022-12-16T16:11:31.351Z,0.00
2022-12-16T16:12:31.327Z,0.00
2022-12-16T16:13:31.762Z,0.00
2022-12-16T16:14:31.290Z,0.00
2022-12-16T16:15:31.419Z,0.00
2022-12-16T16:16:31.271Z,0.00
2022-12-16T16:17:31.303Z,0.00
2022-12-16T16:18:31.924Z,0.00
2022-12-16T16:19:31.262Z,0.00
2022-12-16T16:20:31.258Z,0.00
2022-12-16T16:21:31.225Z,0.00
2022-12-16T16:22:31.204Z,0.00
2022-12-16T16:23:31.706Z,0.00
2022-12-16T16:24:31.191Z,0.00
2022-12-16T16:25:31.177Z,0.00
2022-12-16T16:26:31.209Z,0.00
2022-12-16T16:27:31.155Z,0.00
2022-12-16T16:28:31.322Z,0.00
2022-12-16T16:29:31.139Z,0.00
2022-12-16T16:30:31.129Z,0.00
2022-12-16T16:31:31.160Z,0.00
2022-12-16T16:32:31.109Z,0.00
2022-12-16T16:33:31.446Z,0.00
2022-12-16T16:34:31.078Z,0.00
2022-12-16T16:35:31.094Z,0.00
2022-12-16T16:36:31.071Z,0.00
2022-12-16T16:37:31.053Z,0.00
2022-12-16T16:38:31.042Z,0.00
2022-12-16T16:39:31.049Z,0.00
2022-12-16T16:40:31.015Z,0.00
2022-12-16T16:41:31.028Z,0.00
2022-12-16T16:42:31.018Z,0.00
2022-12-16T16:43:31.363Z,0.00
2022-12-16T16:44:30.978Z,0.00
2022-12-16T16:45:31.013Z,0.00
2022-12-16T16:46:31.016Z,0.00
2022-12-16T16:47:30.961Z,0.00
2022-12-16T16:48:30.942Z,0.00
2022-12-16T16:49:30.976Z,0.00
2022-12-16T16:50:30.916Z,0.00
2022-12-16T16:51:30.902Z,0.00
2022-12-16T16:52:30.912Z,0.00
2022-12-16T16:53:31.048Z,0.00
2022-12-16T16:54:30.894Z,0.00
2022-12-16T16:55:30.932Z,0.00
2022-12-16T16:56:30.855Z,0.00
2022-12-16T16:57:30.845Z,0.00
2022-12-16T16:58:30.851Z,0.00
2022-12-16T16:59:30.830Z,0.00
2022-12-16T17:00:30.945Z,0.00
2022-12-16T17:01:30.939Z,0.00
2022-12-16T17:02:32.789Z,0.00
2022-12-16T17:03:31.179Z,0.00
2022-12-16T17:04:30.936Z,0.00
2022-12-16T17:05:30.774Z,0.00
2022-12-16T17:06:30.740Z,0.00
2022-12-16T17:07:30.729Z,0.00
2022-12-16T17:08:30.748Z,0.00
2022-12-16T17:09:30.715Z,0.00
2022-12-16T17:10:30.697Z,0.00
2022-12-16T17:11:30.717Z,0.00
2022-12-16T17:12:30.712Z,0.00
2022-12-16T17:13:31.147Z,0.00
2022-12-16T17:14:30.708Z,0.00
2022-12-16T17:15:30.654Z,0.00
2022-12-16T17:16:30.653Z,0.00
2022-12-16T17:17:30.638Z,0.00
2022-12-16T17:18:30.608Z,0.00
2022-12-16T17:19:30.612Z,0.00
2022-12-16T17:20:30.612Z,0.00
2022-12-16T17:21:30.584Z,0.00
2022-12-16T17:22:30.569Z,0.00
2022-12-16T17:23:31.085Z,0.00
2022-12-16T17:24:30.549Z,0.00
2022-12-16T17:25:30.578Z,0.00
2022-12-16T17:26:30.527Z,0.00
2022-12-16T17:27:30.524Z,0.00
2022-12-16T17:28:30.511Z,0.00
2022-12-16T17:29:30.508Z,0.00
2022-12-16T17:30:30.507Z,0.00
2022-12-16T17:31:30.677Z,0.00
2022-12-16T17:32:30.476Z,0.00
2022-12-16T17:33:30.595Z,0.00
2022-12-16T17:34:30.443Z,0.00
2022-12-16T17:35:30.450Z,0.00
2022-12-16T17:36:32.100Z,0.00
2022-12-16T17:37:30.413Z,0.00
2022-12-16T17:38:30.404Z,0.00
2022-12-16T17:39:30.415Z,0.00
2022-12-16T17:40:30.393Z,0.00
2022-12-16T17:41:30.381Z,0.00
2022-12-16T17:42:30.359Z,0.00
2022-12-16T17:43:30.647Z,0.00
2022-12-16T17:44:30.350Z,0.00
2022-12-16T17:45:30.333Z,0.00
2022-12-16T17:46:30.500Z,0.00
2022-12-16T17:47:30.327Z,0.00
2022-12-16T17:48:30.295Z,0.00
2022-12-16T17:49:30.316Z,0.00
2022-12-16T17:50:30.285Z,0.00
2022-12-16T17:51:30.266Z,0.00
2022-12-16T17:52:30.266Z,0.00
2022-12-16T17:53:30.514Z,0.00
2022-12-16T17:54:30.240Z,0.00
2022-12-16T17:55:30.245Z,0.00
2022-12-16T17:56:30.214Z,0.00
2022-12-16T17:57:30.201Z,0.00
2022-12-16T17:58:31.127Z,0.00
2022-12-16T17:59:30.193Z,0.00
2022-12-16T18:00:30.200Z,0.00
2022-12-16T18:01:30.277Z,0.00
2022-12-16T18:02:30.413Z,0.00
2022-12-16T18:03:30.333Z,0.00
2022-12-16T18:04:30.136Z,0.00
2022-12-16T18:05:37.646Z,0.00
2022-12-16T18:06:31.112Z,0.00
2022-12-16T18:07:30.097Z,0.00
2022-12-16T18:08:30.097Z,0.00
2022-12-16T18:09:30.091Z,0.00